Time;durP1;ratioP1;P1;durP2;ratioP2;P2;SDS_P1;SDS_P2;PMS_P1;PMS_P2;Temp;Humidity;BMP_temperature;BMP_pressure;BME280_temperature;BME280_humidity;BME280_pressure;Samples;Min_cycle;Max_cycle;Signal;HPM_P1;HPM_P2
2021/01/27 00:02:27;;;;;;;136.80;107.60;;;19.00;47.50;;;;;;4447082;59;21579;-35
2021/01/27 00:07:28;;;;;;;135.48;107.47;;;19.00;47.40;;;;;;4440838;60;21841;-31
2021/01/27 00:12:29;;;;;;;138.68;107.97;;;19.00;47.40;;;;;;4455337;59;21098;-30
2021/01/27 00:17:30;;;;;;;133.18;106.28;;;19.00;47.40;;;;;;4447598;59;21144;-25
2021/01/27 00:22:31;;;;;;;137.95;107.32;;;19.00;47.50;;;;;;4446386;59;21187;-28
2021/01/27 00:27:31;;;;;;;135.05;106.07;;;19.00;47.30;;;;;;4462386;59;21077;-32
2021/01/27 00:32:32;;;;;;;136.25;104.70;;;19.00;47.20;;;;;;4454776;59;21053;-31
2021/01/27 00:37:33;;;;;;;133.43;105.75;;;19.00;47.00;;;;;;4483608;59;21058;-32
2021/01/27 00:42:35;;;;;;;130.00;103.62;;;19.00;47.20;;;;;;4481079;59;21085;-33
2021/01/27 00:47:35;;;;;;;131.25;104.22;;;19.00;47.90;;;;;;4455103;59;21524;-33
2021/01/27 00:52:36;;;;;;;131.80;103.93;;;18.90;47.20;;;;;;4447883;59;21092;-37
2021/01/27 00:57:37;;;;;;;130.68;100.95;;;19.00;46.90;;;;;;4443996;59;21090;-32
2021/01/27 01:02:39;;;;;;;131.52;103.47;;;19.00;47.70;;;;;;4447061;59;21049;-36
2021/01/27 01:07:43;;;;;;;130.40;100.15;;;18.90;46.90;;;;;;4440191;61;21492;-27
2021/01/27 01:12:44;;;;;;;134.63;104.53;;;18.90;47.50;;;;;;4453675;59;21043;-36
2021/01/27 01:17:45;;;;;;;128.65;100.32;;;18.90;46.70;;;;;;4444422;59;21547;-28
2021/01/27 01:22:49;;;;;;;125.97;97.68;;;19.00;46.90;;;;;;4440672;60;21058;-38
2021/01/27 01:27:50;;;;;;;131.80;102.55;;;18.90;46.70;;;;;;4450289;59;21081;-34
2021/01/27 01:32:52;;;;;;;125.93;96.45;;;18.90;46.60;;;;;;4459025;59;21062;-32
2021/01/27 01:37:54;;;;;;;126.72;98.28;;;18.90;46.80;;;;;;4468323;59;21110;-30
2021/01/27 01:43:52;;;;;;;130.15;101.03;;;18.90;46.60;;;;;;4448483;59;21085;-36
2021/01/27 01:48:59;;;;;;;125.57;98.40;;;18.90;46.50;;;;;;4440539;63;22431;-31
2021/01/27 01:54:53;;;;;;;127.75;100.00;;;18.90;46.50;;;;;;4479672;59;21124;-34
2021/01/27 01:59:58;;;;;;;120.35;94.28;;;18.90;46.60;;;;;;4440164;63;21632;-33
2021/01/27 02:05:04;;;;;;;122.57;95.05;;;18.90;46.50;;;;;;4449765;59;21066;-36
2021/01/27 02:10:06;;;;;;;124.80;96.30;;;18.90;46.20;;;;;;4446287;59;21037;-35
2021/01/27 02:22:11;;;;;;;125.12;96.53;;;18.90;46.30;;;;;;4449126;59;21069;-33
2021/01/27 02:27:26;;;;;;;117.30;91.53;;;18.90;46.20;;;;;;4460361;59;21158;-34
2021/01/27 02:36:11;;;;;;;122.25;90.65;;;18.90;46.10;;;;;;4444737;59;21088;-36
2021/01/27 02:41:42;;;;;;;123.87;96.18;;;18.90;46.20;;;;;;4460732;59;21089;-32
2021/01/27 02:46:51;;;;;;;117.10;90.38;;;18.90;46.20;;;;;;4451872;59;21086;-33
2021/01/27 02:51:59;;;;;;;118.75;93.40;;;18.90;45.80;;;;;;4441117;59;21082;-33
2021/01/27 02:57:16;;;;;;;117.13;92.55;;;18.90;46.10;;;;;;4440693;59;21505;-34
2021/01/27 03:02:31;;;;;;;117.80;91.65;;;18.90;45.90;;;;;;4462244;59;21113;-28
2021/01/27 03:07:36;;;;;;;117.72;91.82;;;18.90;46.00;;;;;;4459649;59;21531;-35
2021/01/27 03:12:37;;;;;;;115.78;89.18;;;18.90;45.90;;;;;;4456731;59;21154;-28
2021/01/27 03:17:39;;;;;;;117.47;91.37;;;18.90;46.00;;;;;;4472238;59;21537;-34
2021/01/27 03:22:47;;;;;;;114.78;89.78;;;18.90;45.80;;;;;;4440859;63;22062;-38
2021/01/27 03:28:16;;;;;;;112.95;88.68;;;18.90;46.00;;;;;;4444911;59;21112;-36
2021/01/27 03:33:25;;;;;;;113.95;88.80;;;18.90;45.50;;;;;;4449874;59;21074;-24
2021/01/27 03:39:03;;;;;;;106.55;83.07;;;18.90;45.50;;;;;;4474603;59;21109;-35
2021/01/27 03:45:06;;;;;;;113.15;89.07;;;18.90;45.90;;;;;;4445106;59;21066;-37
2021/01/27 03:50:14;;;;;;;115.88;89.22;;;18.90;45.70;;;;;;4447411;59;21118;-38
2021/01/27 03:55:23;;;;;;;113.45;89.00;;;18.90;45.60;;;;;;4446673;59;21054;-41
2021/01/27 04:00:28;;;;;;;108.72;84.95;;;18.90;45.50;;;;;;4480689;59;21057;-35
2021/01/27 04:05:28;;;;;;;110.65;86.25;;;18.90;45.50;;;;;;4453038;59;21179;-27
2021/01/27 04:10:29;;;;;;;110.50;85.68;;;18.90;45.40;;;;;;4455270;59;21125;-32
2021/01/27 04:15:30;;;;;;;106.57;84.00;;;18.90;45.30;;;;;;4459124;59;21737;-28
2021/01/27 04:20:31;;;;;;;104.30;81.10;;;18.90;45.50;;;;;;4469598;59;21065;-26
2021/01/27 04:25:32;;;;;;;107.30;82.80;;;18.90;45.30;;;;;;4455037;59;21065;-34
2021/01/27 04:30:35;;;;;;;106.68;82.60;;;18.90;45.50;;;;;;4449867;59;21077;-37
2021/01/27 04:35:36;;;;;;;101.38;77.87;;;18.90;45.30;;;;;;4463519;59;21033;-33
2021/01/27 04:40:43;;;;;;;104.82;81.40;;;18.90;45.30;;;;;;4457201;59;21141;-31
2021/01/27 04:45:49;;;;;;;104.10;82.00;;;18.90;45.50;;;;;;4441135;63;21026;-36
2021/01/27 04:51:03;;;;;;;100.55;80.55;;;18.90;45.30;;;;;;4449638;59;21099;-26
2021/01/27 04:56:43;;;;;;;105.95;82.72;;;18.90;45.30;;;;;;4442004;59;21118;-31
2021/01/27 05:05:13;;;;;;;104.30;81.72;;;18.90;45.40;;;;;;4471219;59;21053;-38
2021/01/27 05:11:19;;;;;;;99.13;78.28;;;18.90;45.30;;;;;;4445711;59;21070;-34
2021/01/27 05:16:27;;;;;;;102.20;80.75;;;18.90;45.20;;;;;;4444831;59;21180;-30
2021/01/27 05:21:40;;;;;;;97.80;78.68;;;18.80;45.20;;;;;;4448716;59;21379;-26
2021/01/27 05:27:04;;;;;;;102.93;79.03;;;18.80;45.40;;;;;;4443753;59;21528;-36
2021/01/27 05:32:26;;;;;;;95.15;75.60;;;18.80;45.40;;;;;;4445624;59;21129;-35
2021/01/27 05:37:36;;;;;;;95.43;74.53;;;18.80;45.40;;;;;;4458057;59;21053;-35
2021/01/27 05:42:38;;;;;;;97.35;75.15;;;18.80;45.70;;;;;;4440658;63;21038;-32
2021/01/27 05:47:39;;;;;;;98.28;76.25;;;18.80;45.60;;;;;;4486100;59;21115;-32
2021/01/27 05:52:41;;;;;;;98.32;74.03;;;18.80;45.70;;;;;;4457545;59;21584;-28
2021/01/27 05:57:42;;;;;;;94.43;75.47;;;18.80;45.60;;;;;;4455350;59;21142;-35
2021/01/27 06:02:44;;;;;;;100.22;76.37;;;18.90;45.80;;;;;;4456380;59;21571;-32
2021/01/27 06:07:45;;;;;;;93.95;74.28;;;18.90;46.50;;;;;;4454952;59;21105;-25
2021/01/27 06:12:45;;;;;;;94.18;72.78;;;18.80;45.80;;;;;;4456330;59;21444;-34
2021/01/27 06:17:48;;;;;;;98.10;76.07;;;18.80;45.90;;;;;;4456328;59;21619;-36
2021/01/27 06:24:41;;;;;;;94.97;76.32;;;18.80;45.70;;;;;;4454199;59;21077;-37
2021/01/27 06:32:59;;;;;;;90.70;69.50;;;18.90;45.80;;;;;;4440079;59;21141;-35
2021/01/27 06:38:25;;;;;;;85.85;68.93;;;18.80;45.70;;;;;;4441525;59;21180;-31
2021/01/27 06:46:33;;;;;;;91.37;70.50;;;18.80;45.70;;;;;;4462650;59;21053;-33
2021/01/27 06:52:04;;;;;;;91.00;71.10;;;18.80;45.70;;;;;;4441676;59;21119;-26
2021/01/27 06:57:47;;;;;;;87.88;70.18;;;18.80;45.80;;;;;;4442708;59;21082;-29
2021/01/27 07:04:01;;;;;;;87.40;69.28;;;18.80;46.50;;;;;;4449920;59;21511;-32
2021/01/27 07:12:02;;;;;;;90.45;70.57;;;18.80;45.90;;;;;;4455862;59;21050;-32
2021/01/27 07:17:34;;;;;;;88.87;72.90;;;18.80;45.80;;;;;;4463590;59;21114;-31
2021/01/27 07:24:13;;;;;;;86.87;69.15;;;18.80;45.70;;;;;;4445454;59;21110;-33
2021/01/27 07:29:20;;;;;;;89.50;70.28;;;18.80;45.80;;;;;;4443306;59;21135;-31
2021/01/27 07:37:02;;;;;;;83.72;65.32;;;18.80;45.80;;;;;;4450058;59;21057;-27
2021/01/27 07:42:40;;;;;;;90.68;70.93;;;18.80;45.60;;;;;;4454667;59;21081;-35
2021/01/27 07:49:57;;;;;;;91.82;72.87;;;18.80;45.70;;;;;;4449853;59;21145;-36
2021/01/27 07:55:16;;;;;;;89.90;71.85;;;18.80;45.90;;;;;;4471857;59;21121;-37
2021/01/27 08:00:26;;;;;;;92.72;72.32;;;18.80;45.70;;;;;;4439317;63;21137;-30
2021/01/27 08:05:32;;;;;;;91.53;73.68;;;18.80;45.50;;;;;;4465686;59;21070;-31
2021/01/27 08:10:35;;;;;;;84.82;64.45;;;18.80;45.80;;;;;;4449575;59;21062;-29
2021/01/27 08:15:43;;;;;;;91.07;72.15;;;18.90;45.80;;;;;;4455067;59;21115;-32
2021/01/27 08:20:46;;;;;;;86.68;69.35;;;18.90;46.20;;;;;;4444999;59;21536;-25
2021/01/27 08:25:59;;;;;;;86.00;69.75;;;19.00;46.50;;;;;;4484878;59;21153;-32
2021/01/27 08:32:19;;;;;;;91.05;72.45;;;19.00;46.60;;;;;;4447993;59;21053;-32
2021/01/27 08:37:31;;;;;;;92.12;71.25;;;19.10;46.80;;;;;;4449043;59;21119;-32
2021/01/27 08:42:49;;;;;;;88.93;70.80;;;19.20;47.00;;;;;;4441043;59;21161;-25
2021/01/27 08:47:51;;;;;;;;;;;19.20;47.50;;;;;;4454087;59;21199;-28
2021/01/27 08:52:53;;;;;;;93.20;70.07;;;19.20;48.00;;;;;;4439881;61;20082;-30
2021/01/27 09:01:46;;;;;;;92.62;72.82;;;19.30;48.20;;;;;;4450593;59;21093;-33
2021/01/27 09:06:49;;;;;;;93.07;72.70;;;19.40;48.50;;;;;;4448631;59;21157;-30
2021/01/27 09:12:05;;;;;;;97.30;76.68;;;19.40;48.60;;;;;;4440183;63;21527;-31
2021/01/27 09:17:07;;;;;;;96.63;74.30;;;19.50;48.90;;;;;;4439756;59;21652;-27
2021/01/27 09:22:34;;;;;;;92.57;73.10;;;19.50;49.00;;;;;;4442574;59;21129;-33
2021/01/27 09:27:35;;;;;;;97.23;76.30;;;19.50;49.10;;;;;;4456010;59;21062;-31
2021/01/27 09:32:36;;;;;;;95.03;75.55;;;19.60;49.30;;;;;;4459753;59;21069;-33
2021/01/27 09:37:45;;;;;;;99.07;78.60;;;19.60;49.30;;;;;;4450459;59;21129;-34
2021/01/27 09:42:46;;;;;;;102.05;82.22;;;19.60;49.30;;;;;;4454482;59;21098;-31
2021/01/27 09:47:49;;;;;;;100.32;79.12;;;19.70;49.50;;;;;;4469597;59;21150;-32
2021/01/27 09:52:56;;;;;;;106.00;84.22;;;19.70;49.90;;;;;;4437838;63;21492;-36
2021/01/27 09:57:57;;;;;;;;;;;19.70;49.80;;;;;;4443533;59;21069;-33
2021/01/27 10:04:50;;;;;;;108.47;81.50;;;19.70;50.00;;;;;;4465689;59;20329;-34
2021/01/27 10:10:09;;;;;;;107.72;84.60;;;19.70;50.10;;;;;;4449325;59;21093;-35
2021/01/27 10:15:32;;;;;;;106.60;84.45;;;19.80;50.10;;;;;;4468966;59;21162;-29
2021/01/27 10:20:40;;;;;;;108.20;86.20;;;19.80;50.50;;;;;;4468773;59;21564;-32
2021/01/27 10:25:44;;;;;;;107.53;85.10;;;19.80;50.60;;;;;;4439155;63;21595;-28
2021/01/27 10:31:03;;;;;;;111.32;85.97;;;19.80;50.80;;;;;;4443274;59;21519;-26
2021/01/27 10:37:23;;;;;;;119.75;94.75;;;19.80;50.60;;;;;;4437417;59;21611;-28
2021/01/27 10:42:24;;;;;;;117.62;95.55;;;19.70;50.40;;;;;;4437764;63;21153;-26
2021/01/27 10:47:31;;;;;;;120.30;96.43;;;19.70;50.40;;;;;;4455348;59;22292;-31
2021/01/27 10:52:32;;;;;;;123.53;96.37;;;19.60;50.20;;;;;;4466855;59;21081;-27
2021/01/27 10:57:33;;;;;;;122.82;97.32;;;19.60;50.00;;;;;;4480884;59;21857;-33
2021/01/27 11:02:34;;;;;;;119.03;93.35;;;19.70;50.20;;;;;;4455570;59;21061;-33
2021/01/27 11:07:35;;;;;;;125.15;96.53;;;19.70;50.40;;;;;;4454801;59;22277;-27
2021/01/27 11:12:36;;;;;;;129.05;100.22;;;19.80;50.50;;;;;;4455415;59;21234;-34
2021/01/27 11:17:36;;;;;;;130.25;101.82;;;19.80;50.60;;;;;;4456527;59;21512;-28
2021/01/27 11:22:37;;;;;;;131.98;102.60;;;19.80;50.80;;;;;;4446359;59;21090;-26
2021/01/27 11:27:38;;;;;;;133.82;103.20;;;19.80;51.10;;;;;;4464245;59;21076;-33
2021/01/27 11:32:39;;;;;;;132.25;106.03;;;19.80;51.00;;;;;;4453116;59;21062;-33
2021/01/27 11:37:40;;;;;;;135.95;106.45;;;19.90;51.10;;;;;;4448700;59;21392;-30
2021/01/27 11:42:41;;;;;;;138.00;107.82;;;19.80;51.10;;;;;;4453537;59;21160;-33
2021/01/27 11:47:42;;;;;;;136.00;110.50;;;19.80;51.20;;;;;;4458215;59;21102;-29
2021/01/27 11:52:44;;;;;;;143.82;114.82;;;19.80;51.20;;;;;;4453094;59;21119;-27
2021/01/27 11:57:46;;;;;;;140.32;110.50;;;19.80;51.30;;;;;;4446619;59;21112;-29
2021/01/27 12:02:46;;;;;;;142.30;112.37;;;19.80;51.30;;;;;;4439071;59;21046;-32
2021/01/27 12:07:48;;;;;;;144.98;115.22;;;19.80;51.40;;;;;;4449796;59;21129;-27
2021/01/27 12:12:49;;;;;;;150.90;119.07;;;19.80;51.30;;;;;;4455848;59;21042;-29
2021/01/27 12:17:51;;;;;;;148.18;118.62;;;19.80;51.30;;;;;;4457236;59;21572;-33
2021/01/27 12:22:52;;;;;;;150.32;116.88;;;19.80;51.50;;;;;;4455799;59;22330;-33
2021/01/27 12:27:53;;;;;;;154.57;121.05;;;19.80;51.40;;;;;;4471227;59;21065;-31
2021/01/27 12:32:53;;;;;;;149.23;118.78;;;19.80;51.40;;;;;;4450499;59;21629;-34
2021/01/27 12:37:54;;;;;;;151.85;115.28;;;19.80;51.40;;;;;;4444005;59;21123;-26
2021/01/27 12:42:55;;;;;;;162.02;123.30;;;19.70;51.40;;;;;;4443302;59;21045;-30
2021/01/27 12:47:56;;;;;;;174.95;136.75;;;19.80;51.60;;;;;;4452560;59;21628;-31
2021/01/27 12:52:57;;;;;;;160.98;127.38;;;19.80;51.40;;;;;;4478760;59;21049;-27
2021/01/27 12:58:00;;;;;;;163.98;131.20;;;19.80;51.60;;;;;;4460692;59;21720;-31
2021/01/27 13:03:02;;;;;;;151.00;120.72;;;19.80;51.70;;;;;;4463051;59;22400;-31
2021/01/27 13:08:04;;;;;;;158.43;126.25;;;19.90;51.90;;;;;;4467466;59;21548;-32
2021/01/27 13:13:05;;;;;;;162.00;126.95;;;19.90;52.00;;;;;;4479886;59;21117;-29
2021/01/27 13:18:07;;;;;;;162.95;128.82;;;20.00;52.30;;;;;;4440750;59;21603;-31
2021/01/27 13:23:08;;;;;;;162.05;129.63;;;20.00;52.20;;;;;;4457073;59;21069;-36
2021/01/27 13:28:09;;;;;;;158.68;127.82;;;20.00;52.40;;;;;;4452856;59;21523;-26
2021/01/27 13:33:12;;;;;;;172.77;135.68;;;20.00;52.40;;;;;;4439511;63;21043;-36
2021/01/27 13:38:14;;;;;;;160.55;128.12;;;20.00;52.40;;;;;;4461437;59;21539;-34
2021/01/27 13:43:15;;;;;;;162.43;128.70;;;20.10;52.60;;;;;;4439840;63;21528;-34
2021/01/27 14:09:48;;;;;;;184.57;141.65;;;20.10;52.70;;;;;;4871909;53;28069;-27
2021/01/27 14:14:49;;;;;;;173.60;137.88;;;20.10;53.00;;;;;;4837973;53;21031;-23
2021/01/27 14:19:50;;;;;;;173.48;138.48;;;20.00;52.90;;;;;;4836836;54;21550;-28
2021/01/27 14:24:51;;;;;;;164.82;131.05;;;20.00;52.90;;;;;;4826658;54;21060;-30
2021/01/27 14:29:52;;;;;;;176.43;139.98;;;20.00;52.80;;;;;;4827132;54;21063;-26
2021/01/27 14:34:53;;;;;;;179.95;140.65;;;20.00;52.80;;;;;;4818710;57;21100;-31
2021/01/27 14:39:54;;;;;;;178.02;138.55;;;19.90;52.40;;;;;;4857302;54;20980;-26
2021/01/27 14:44:55;;;;;;;178.27;142.05;;;19.90;52.20;;;;;;4828241;54;21942;-28
2021/01/27 14:49:56;;;;;;;176.95;138.15;;;19.90;52.20;;;;;;4847129;54;21537;-25
2021/01/27 14:54:57;;;;;;;181.12;145.77;;;19.80;51.80;;;;;;4860650;54;21017;-29
2021/01/27 14:59:58;;;;;;;175.48;140.00;;;19.90;51.80;;;;;;4980536;53;21068;-29
2021/01/27 15:04:59;;;;;;;181.63;143.95;;;19.80;51.70;;;;;;4884874;53;20981;-27
2021/01/27 15:10:01;;;;;;;189.45;146.70;;;19.90;51.70;;;;;;4885251;53;21098;-28
2021/01/27 15:15:04;;;;;;;177.93;140.98;;;19.80;51.60;;;;;;4876773;57;21080;-28
2021/01/27 15:20:07;;;;;;;177.55;139.50;;;19.90;51.70;;;;;;4897045;53;21101;-21
2021/01/27 15:25:09;;;;;;;174.80;139.95;;;19.80;51.60;;;;;;4882546;53;20962;-25
2021/01/27 15:30:11;;;;;;;181.70;144.77;;;19.90;51.70;;;;;;4895367;53;21595;-26
2021/01/27 15:35:13;;;;;;;175.85;141.48;;;19.90;51.70;;;;;;4899425;53;20990;-27
2021/01/27 15:40:15;;;;;;;178.65;140.80;;;19.90;51.60;;;;;;4881493;53;21021;-29
2021/01/27 15:45:18;;;;;;;174.75;136.10;;;19.80;51.60;;;;;;4896713;53;20954;-25
2021/01/27 15:50:19;;;;;;;180.82;147.07;;;19.90;51.60;;;;;;4874455;57;21072;-29
2021/01/27 15:55:20;;;;;;;168.62;133.60;;;19.90;51.80;;;;;;4874267;53;22283;-30
2021/01/27 16:00:23;;;;;;;176.20;138.00;;;19.90;52.00;;;;;;4892667;53;21116;-21
2021/01/27 16:05:28;;;;;;;174.90;138.37;;;19.90;52.00;;;;;;4891002;53;21042;-31
2021/01/27 16:10:33;;;;;;;183.05;142.52;;;19.80;51.80;;;;;;4883564;53;21451;-29
2021/01/27 16:15:37;;;;;;;182.00;145.60;;;19.70;51.70;;;;;;4889184;53;21447;-29
2021/01/27 16:20:38;;;;;;;175.90;140.20;;;19.70;51.70;;;;;;4900061;53;21452;-23
2021/01/27 16:25:39;;;;;;;183.65;141.52;;;19.60;51.70;;;;;;4874034;57;20994;-26
2021/01/27 16:30:40;;;;;;;182.05;141.82;;;19.60;51.30;;;;;;4881972;53;21550;-25
2021/01/27 16:35:41;;;;;;;179.12;142.52;;;19.60;51.30;;;;;;4880225;53;21222;-25
2021/01/27 16:40:42;;;;;;;183.23;142.85;;;19.60;51.40;;;;;;4897764;53;20970;-26
2021/01/27 16:45:43;;;;;;;186.57;147.13;;;19.50;50.90;;;;;;4874666;55;20990;-25
2021/01/27 16:50:44;;;;;;;177.68;143.13;;;19.50;50.90;;;;;;4900422;53;21125;-28
2021/01/27 16:55:45;;;;;;;184.73;145.10;;;19.50;50.90;;;;;;4874361;57;21559;-31
2021/01/27 17:00:45;;;;;;;181.00;144.55;;;19.50;50.80;;;;;;4889877;53;21057;-30
2021/01/27 17:05:46;;;;;;;182.07;142.70;;;19.40;50.50;;;;;;4879782;53;21412;-25
2021/01/27 17:10:47;;;;;;;178.90;143.50;;;19.40;50.70;;;;;;4898735;53;21512;-29
2021/01/27 17:15:48;;;;;;;177.00;141.10;;;19.40;50.50;;;;;;4875462;53;20990;-28
2021/01/27 17:20:52;;;;;;;183.93;146.07;;;19.40;50.50;;;;;;4913432;53;20982;-30
2021/01/27 17:25:53;;;;;;;186.12;149.30;;;19.40;50.50;;;;;;4909644;53;21531;-29
2021/01/27 17:30:54;;;;;;;192.30;153.73;;;19.40;50.20;;;;;;4894562;53;21134;-27
2021/01/27 17:35:55;;;;;;;182.93;149.50;;;19.40;50.20;;;;;;4896695;53;21484;-27
2021/01/27 17:40:56;;;;;;;191.20;152.50;;;19.40;50.40;;;;;;4914176;53;20986;-27
2021/01/27 17:45:57;;;;;;;192.62;152.90;;;19.30;50.10;;;;;;4897855;53;20996;-21
2021/01/27 17:50:58;;;;;;;186.05;147.35;;;19.30;50.10;;;;;;4899373;53;21511;-26
2021/01/27 17:55:59;;;;;;;191.27;153.07;;;19.30;49.80;;;;;;4880031;53;21097;-24
2021/01/27 18:01:00;;;;;;;190.75;155.15;;;19.30;49.90;;;;;;4901744;53;20970;-29
2021/01/27 18:06:01;;;;;;;182.50;149.05;;;19.30;50.30;;;;;;4874405;54;21024;-26
2021/01/27 18:11:02;;;;;;;179.68;145.75;;;19.30;49.80;;;;;;4898737;53;20970;-22
2021/01/27 18:16:04;;;;;;;186.77;148.98;;;19.30;49.70;;;;;;4920695;53;21010;-26
2021/01/27 18:21:06;;;;;;;180.48;144.77;;;19.30;49.50;;;;;;4885314;53;20977;-26
2021/01/27 18:26:07;;;;;;;181.57;145.82;;;19.30;49.90;;;;;;4923972;53;21002;-29
2021/01/27 18:31:09;;;;;;;187.20;150.85;;;19.20;49.60;;;;;;4883466;53;21476;-26
2021/01/27 18:36:10;;;;;;;183.68;148.25;;;19.30;49.30;;;;;;4921869;53;21009;-20
2021/01/27 18:41:11;;;;;;;182.50;145.12;;;19.30;49.30;;;;;;4874298;57;20978;-26
2021/01/27 18:46:12;;;;;;;184.05;145.75;;;19.30;49.50;;;;;;4882512;53;20985;-30
2021/01/27 18:51:13;;;;;;;176.37;140.65;;;19.20;49.20;;;;;;4886907;53;21001;-29
2021/01/27 18:56:14;;;;;;;181.27;148.60;;;19.20;49.50;;;;;;4874474;53;21057;-29
2021/01/27 19:01:15;;;;;;;182.30;146.70;;;19.20;49.50;;;;;;4897613;53;20993;-30
2021/01/27 19:06:17;;;;;;;184.35;149.73;;;19.20;49.40;;;;;;4897804;53;21032;-27
2021/01/27 19:11:19;;;;;;;185.32;149.10;;;19.20;49.30;;;;;;4875547;57;21528;-32
2021/01/27 19:16:21;;;;;;;184.15;148.32;;;19.20;49.10;;;;;;4904926;53;21065;-29
2021/01/27 19:21:23;;;;;;;185.82;147.65;;;19.20;49.00;;;;;;4875146;57;22446;-31
2021/01/27 19:26:24;;;;;;;180.95;145.38;;;19.20;49.20;;;;;;4898157;53;21097;-30
2021/01/27 19:31:25;;;;;;;180.55;144.48;;;19.20;49.70;;;;;;4884648;53;21482;-30
2021/01/27 19:36:26;;;;;;;186.50;150.12;;;19.20;49.10;;;;;;4874018;54;21077;-30
2021/01/27 19:41:27;;;;;;;183.93;144.60;;;19.20;49.10;;;;;;4886172;53;21476;-28
2021/01/27 19:46:28;;;;;;;180.05;145.75;;;19.20;49.20;;;;;;4893251;53;21093;-25
2021/01/27 19:51:29;;;;;;;179.23;144.00;;;19.20;49.10;;;;;;4895169;53;20989;-30
2021/01/27 19:56:30;;;;;;;185.07;146.00;;;19.20;48.80;;;;;;4884976;53;21057;-28
2021/01/27 20:01:31;;;;;;;178.73;145.45;;;19.20;48.90;;;;;;4889852;53;21559;-29
2021/01/27 20:06:32;;;;;;;181.43;142.95;;;19.20;48.90;;;;;;4874836;57;21077;-30
2021/01/27 20:11:33;;;;;;;181.60;145.75;;;19.20;48.90;;;;;;4877312;53;21029;-27
2021/01/27 20:16:34;;;;;;;178.10;143.00;;;19.20;48.50;;;;;;4893007;53;21029;-29
2021/01/27 20:21:35;;;;;;;186.18;149.90;;;19.20;48.80;;;;;;4907417;53;21071;-29
2021/01/27 20:26:37;;;;;;;179.57;145.12;;;19.20;48.60;;;;;;4912657;53;21195;-30
2021/01/27 20:31:40;;;;;;;177.15;144.62;;;19.20;48.60;;;;;;4890610;53;21017;-30
2021/01/27 20:36:42;;;;;;;172.35;141.95;;;19.20;48.70;;;;;;4915824;53;21606;-30
2021/01/27 20:41:44;;;;;;;176.68;144.50;;;19.10;48.50;;;;;;4879663;53;20986;-24
2021/01/27 20:46:45;;;;;;;171.70;135.95;;;19.10;48.40;;;;;;4886200;53;21057;-29
2021/01/27 20:51:47;;;;;;;179.12;145.43;;;19.20;48.30;;;;;;4874763;54;21047;-28
2021/01/27 20:56:49;;;;;;;165.55;135.77;;;19.20;48.50;;;;;;4877513;53;21145;-28
2021/01/27 21:01:50;;;;;;;169.35;138.25;;;19.10;48.40;;;;;;4880214;53;21460;-30
2021/01/27 21:06:51;;;;;;;176.95;143.77;;;19.20;48.20;;;;;;4925757;53;20974;-31
2021/01/27 21:11:52;;;;;;;169.60;136.40;;;19.20;48.30;;;;;;4875600;53;21528;-24
2021/01/27 21:16:53;;;;;;;166.62;135.65;;;19.10;48.20;;;;;;4882781;53;21002;-29
2021/01/27 21:21:54;;;;;;;173.48;137.20;;;19.10;48.40;;;;;;4966425;53;21467;-29
2021/01/27 21:26:55;;;;;;;172.25;139.02;;;19.20;48.30;;;;;;4901652;53;21012;-31
2021/01/27 21:31:56;;;;;;;175.48;144.40;;;19.20;48.20;;;;;;4884121;53;21508;-30
2021/01/27 21:36:57;;;;;;;169.85;137.25;;;19.20;48.10;;;;;;4873982;57;21093;-28
2021/01/27 21:41:58;;;;;;;166.52;136.55;;;19.10;48.00;;;;;;4874478;54;21546;-28
2021/01/27 21:46:59;;;;;;;170.07;138.75;;;19.10;47.90;;;;;;4910790;53;20966;-28
2021/01/27 21:52:00;;;;;;;172.07;140.40;;;19.10;48.10;;;;;;4934484;53;21048;-31
2021/01/27 21:57:01;;;;;;;173.68;139.07;;;19.10;47.90;;;;;;4874680;53;21559;-27
2021/01/27 22:02:02;;;;;;;169.95;136.40;;;19.10;47.90;;;;;;4874715;57;20994;-28
2021/01/27 22:07:03;;;;;;;169.68;139.07;;;19.10;48.10;;;;;;4911867;53;20994;-30
2021/01/27 22:12:05;;;;;;;163.98;132.98;;;19.10;47.70;;;;;;4884491;53;20993;-31
2021/01/27 22:17:06;;;;;;;163.80;132.90;;;19.10;47.90;;;;;;4874580;57;20990;-29
2021/01/27 22:22:07;;;;;;;171.23;136.80;;;19.10;47.90;;;;;;4875394;53;20990;-30
2021/01/27 22:27:08;;;;;;;164.35;135.32;;;19.10;47.50;;;;;;4884287;53;21085;-30
2021/01/27 22:32:08;;;;;;;167.70;135.93;;;19.10;47.70;;;;;;4879184;53;21060;-31
2021/01/27 22:37:09;;;;;;;164.65;132.25;;;19.10;47.80;;;;;;4885658;53;21067;-31
2021/01/27 22:42:10;;;;;;;163.85;131.82;;;19.10;47.70;;;;;;4882102;53;21050;-29
2021/01/27 22:47:11;;;;;;;160.40;128.98;;;19.10;47.50;;;;;;4894386;53;20982;-31
2021/01/27 22:52:12;;;;;;;164.75;133.20;;;19.10;47.60;;;;;;4898203;53;21468;-30
2021/01/27 22:57:13;;;;;;;156.93;127.50;;;19.10;47.40;;;;;;4875785;53;21033;-29
2021/01/27 23:02:14;;;;;;;160.60;130.30;;;19.10;47.60;;;;;;4900536;53;21049;-22
2021/01/27 23:07:14;;;;;;;158.87;129.00;;;19.10;47.40;;;;;;4897099;53;21396;-28
2021/01/27 23:12:15;;;;;;;165.48;132.63;;;19.00;47.40;;;;;;4892314;53;20982;-27
2021/01/27 23:17:16;;;;;;;154.18;124.20;;;19.10;47.20;;;;;;4874713;55;20990;-27
2021/01/27 23:22:17;;;;;;;154.15;124.90;;;19.10;47.40;;;;;;4887168;53;21462;-28
2021/01/27 23:27:18;;;;;;;158.35;125.35;;;19.10;47.40;;;;;;4883371;53;20974;-26
2021/01/27 23:32:19;;;;;;;161.27;130.02;;;19.10;47.40;;;;;;4890664;53;21570;-30
2021/01/27 23:37:20;;;;;;;155.15;126.45;;;19.10;47.20;;;;;;4888643;53;21546;-29
2021/01/27 23:42:21;;;;;;;160.65;130.52;;;19.10;48.00;;;;;;4875991;53;20993;-26
2021/01/27 23:47:22;;;;;;;153.12;122.82;;;19.10;47.30;;;;;;4875339;57;21575;-30
2021/01/27 23:52:22;;;;;;;151.40;122.18;;;19.10;47.20;;;;;;4879147;53;21080;-26
2021/01/27 23:57:23;;;;;;;151.95;121.95;;;19.10;47.00;;;;;;4918331;53;21488;-26
